createdAt,value
2018-12-22T00:00:01.449Z,20.921472
2018-12-22T00:00:13.839Z,19.312128
2018-12-22T00:00:26.220Z,20.921472
2018-12-22T00:00:38.554Z,20.921472
2018-12-22T00:00:50.922Z,20.921472
2018-12-22T00:01:03.268Z,17.702784
2018-12-22T00:01:15.601Z,17.702784
2018-12-22T00:01:27.961Z,17.702784
2018-12-22T00:01:40.308Z,19.312128
2018-12-22T00:01:52.827Z,19.312128
2018-12-22T00:02:05.171Z,8.04672
2018-12-22T00:02:17.524Z,11.265408
2018-12-22T00:02:29.874Z,11.265408
2018-12-22T00:02:42.242Z,30.577536
2018-12-22T00:02:54.588Z,30.577536
2018-12-22T00:03:06.928Z,11.265408
2018-12-22T00:03:19.277Z,17.702784
2018-12-22T00:03:31.629Z,17.702784
2018-12-22T00:03:43.992Z,20.921472
2018-12-22T00:03:56.384Z,20.921472
2018-12-22T00:04:08.722Z,30.577536
2018-12-22T00:04:21.057Z,30.577536
2018-12-22T00:04:33.479Z,30.577536
2018-12-22T00:04:45.812Z,30.577536
2018-12-22T00:04:58.141Z,30.577536
2018-12-22T00:05:10.506Z,16.09344
2018-12-22T00:05:22.855Z,16.09344
2018-12-22T00:05:35.227Z,20.921472
2018-12-22T00:05:47.578Z,20.921472
2018-12-22T00:05:59.923Z,20.921472
2018-12-22T00:06:12.418Z,20.921472
2018-12-22T00:06:24.749Z,20.921472
2018-12-22T00:06:37.083Z,20.921472
2018-12-22T00:06:49.466Z,20.921472
2018-12-22T00:07:01.875Z,20.921472
2018-12-22T00:07:14.240Z,12.874752
2018-12-22T00:07:26.587Z,17.702784
2018-12-22T00:07:38.925Z,20.921472
2018-12-22T00:07:51.247Z,20.921472
2018-12-22T00:08:03.597Z,8.04672
2018-12-22T00:08:16.175Z,12.874752
2018-12-22T00:08:28.526Z,12.874752
2018-12-22T00:08:40.854Z,12.874752
2018-12-22T00:08:53.192Z,19.312128
2018-12-22T00:09:05.536Z,9.656064
2018-12-22T00:09:17.878Z,17.702784
2018-12-22T00:09:30.234Z,17.702784
2018-12-22T00:09:42.595Z,17.702784
2018-12-22T00:09:54.936Z,17.702784
2018-12-22T00:10:07.369Z,16.09344
2018-12-22T00:10:19.742Z,20.921472
2018-12-22T00:10:32.088Z,20.921472
2018-12-22T00:10:45.930Z,25.749504
2018-12-22T00:10:58.274Z,25.749504
2018-12-22T00:11:10.622Z,20.921472
2018-12-22T00:11:23.043Z,24.14016
2018-12-22T00:11:35.392Z,28.968192
2018-12-22T00:11:47.733Z,32.18688
2018-12-22T00:12:00.080Z,32.18688
2018-12-22T00:12:12.452Z,14.484096
2018-12-22T00:12:24.800Z,14.484096
2018-12-22T00:12:37.136Z,14.484096
2018-12-22T00:12:49.475Z,14.484096
2018-12-22T00:13:01.894Z,14.484096
2018-12-22T00:13:14.248Z,8.04672
2018-12-22T00:13:26.621Z,8.04672
2018-12-22T00:13:39.080Z,12.874752
2018-12-22T00:13:51.434Z,14.484096
2018-12-22T00:14:03.809Z,12.874752
2018-12-22T00:14:16.142Z,17.702784
2018-12-22T00:14:28.506Z,17.702784
2018-12-22T00:14:40.845Z,17.702784
2018-12-22T00:14:53.395Z,17.702784
2018-12-22T00:15:05.731Z,16.09344
2018-12-22T00:15:18.077Z,19.312128
2018-12-22T00:15:30.420Z,25.749504
2018-12-22T00:15:42.784Z,25.749504
2018-12-22T00:15:55.114Z,25.749504
2018-12-22T00:16:07.463Z,12.874752
2018-12-22T00:16:19.799Z,12.874752
2018-12-22T00:16:32.152Z,12.874752
2018-12-22T00:16:44.487Z,12.874752
2018-12-22T00:16:57.087Z,12.874752
2018-12-22T00:17:09.442Z,11.265408
2018-12-22T00:17:21.899Z,22.530816
2018-12-22T00:17:34.348Z,22.530816
2018-12-22T00:17:46.681Z,22.530816
2018-12-22T00:17:59.045Z,22.530816
2018-12-22T00:18:11.583Z,11.265408
2018-12-22T00:18:23.969Z,16.09344
2018-12-22T00:18:36.313Z,16.09344
2018-12-22T00:18:48.677Z,16.09344
2018-12-22T00:19:01.030Z,16.09344
2018-12-22T00:19:13.378Z,16.09344
2018-12-22T00:19:25.745Z,20.921472
2018-12-22T00:19:38.092Z,20.921472
2018-12-22T00:19:50.462Z,20.921472
2018-12-22T00:20:02.829Z,17.702784
2018-12-22T00:20:15.219Z,17.702784
2018-12-22T00:20:27.565Z,17.702784
2018-12-22T00:20:39.921Z,17.702784
2018-12-22T00:20:52.255Z,17.702784
2018-12-22T00:21:04.604Z,8.04672
2018-12-22T00:21:16.951Z,8.04672
2018-12-22T00:21:29.300Z,9.656064
2018-12-22T00:21:41.657Z,9.656064
2018-12-22T00:21:54.004Z,9.656064
2018-12-22T00:22:06.375Z,8.04672
2018-12-22T00:22:18.715Z,17.702784
2018-12-22T00:22:31.075Z,19.312128
2018-12-22T00:22:43.420Z,19.312128
2018-12-22T00:22:55.765Z,19.312128
2018-12-22T00:23:08.113Z,8.04672
2018-12-22T00:23:20.467Z,16.09344
2018-12-22T00:23:32.830Z,16.09344
2018-12-22T00:23:45.173Z,16.09344
2018-12-22T00:23:57.624Z,16.09344
2018-12-22T00:24:10.066Z,11.265408
2018-12-22T00:24:22.580Z,11.265408
2018-12-22T00:24:34.936Z,16.09344
2018-12-22T00:24:47.269Z,20.921472
2018-12-22T00:24:59.626Z,20.921472
2018-12-22T00:25:11.978Z,9.656064
2018-12-22T00:25:24.327Z,11.265408
2018-12-22T00:25:36.682Z,11.265408
2018-12-22T00:25:49.293Z,11.265408
2018-12-22T00:26:01.789Z,11.265408
2018-12-22T00:26:14.323Z,12.874752
2018-12-22T00:26:26.682Z,17.702784
2018-12-22T00:26:39.115Z,19.312128
2018-12-22T00:26:51.520Z,19.312128
2018-12-22T00:27:03.995Z,11.265408
2018-12-22T00:27:16.328Z,11.265408
2018-12-22T00:27:28.671Z,16.09344
2018-12-22T00:27:43.243Z,16.09344
2018-12-22T00:27:55.603Z,16.09344
2018-12-22T00:28:07.972Z,24.14016
2018-12-22T00:28:28.702Z,24.14016
2018-12-22T00:28:41.044Z,24.14016
2018-12-22T00:28:53.383Z,24.14016
2018-12-22T00:29:05.746Z,9.656064
2018-12-22T00:29:18.131Z,9.656064
2018-12-22T00:29:30.458Z,11.265408
2018-12-22T00:29:42.801Z,11.265408
2018-12-22T00:29:55.139Z,11.265408
2018-12-22T00:30:07.482Z,16.09344
2018-12-22T00:30:19.899Z,17.702784
2018-12-22T00:30:32.239Z,17.702784
2018-12-22T00:30:44.675Z,17.702784
2018-12-22T00:30:57.061Z,17.702784
2018-12-22T00:31:09.422Z,11.265408
2018-12-22T00:31:21.798Z,11.265408
2018-12-22T00:31:34.247Z,11.265408
2018-12-22T00:31:46.683Z,16.09344
2018-12-22T00:31:59.030Z,28.968192
2018-12-22T00:32:11.380Z,22.530816
2018-12-22T00:32:23.838Z,22.530816
2018-12-22T00:32:36.172Z,22.530816
2018-12-22T00:32:48.508Z,22.530816
2018-12-22T00:33:00.857Z,22.530816
2018-12-22T00:33:13.200Z,9.656064
2018-12-22T00:33:27.008Z,9.656064
2018-12-22T00:33:39.375Z,9.656064
2018-12-22T00:33:51.726Z,9.656064
2018-12-22T00:34:04.080Z,3.218688
2018-12-22T00:34:16.418Z,8.04672
2018-12-22T00:34:28.755Z,11.265408
2018-12-22T00:34:41.236Z,17.702784
2018-12-22T00:34:53.562Z,24.14016
2018-12-22T00:35:05.901Z,11.265408
2018-12-22T00:35:18.255Z,11.265408
2018-12-22T00:35:30.597Z,19.312128
2018-12-22T00:35:42.933Z,19.312128
2018-12-22T00:35:55.286Z,19.312128
2018-12-22T00:36:07.696Z,3.218688
2018-12-22T00:36:20.162Z,22.530816
2018-12-22T00:36:32.577Z,22.530816
2018-12-22T00:36:44.911Z,22.530816
2018-12-22T00:36:57.264Z,22.530816
2018-12-22T00:37:09.585Z,8.04672
2018-12-22T00:37:22.046Z,19.312128
2018-12-22T00:37:34.398Z,19.312128
2018-12-22T00:37:46.747Z,19.312128
2018-12-22T00:37:59.210Z,19.312128
2018-12-22T00:38:11.542Z,3.218688
2018-12-22T00:38:23.940Z,12.874752
2018-12-22T00:38:36.297Z,16.09344
2018-12-22T00:38:48.656Z,25.749504
2018-12-22T00:39:00.988Z,25.749504
2018-12-22T00:39:13.378Z,11.265408
2018-12-22T00:39:25.770Z,11.265408
2018-12-22T00:39:38.120Z,14.484096
2018-12-22T00:39:50.575Z,24.14016
2018-12-22T00:40:02.982Z,9.656064
2018-12-22T00:40:15.316Z,9.656064
2018-12-22T00:40:27.653Z,9.656064
2018-12-22T00:40:40.013Z,16.09344
2018-12-22T00:40:52.356Z,16.09344
2018-12-22T00:41:04.687Z,1.609344
2018-12-22T00:41:17.291Z,12.874752
2018-12-22T00:41:29.641Z,17.702784
2018-12-22T00:41:41.985Z,17.702784
2018-12-22T00:41:54.414Z,17.702784
2018-12-22T00:42:06.761Z,8.04672
2018-12-22T00:42:19.116Z,19.312128
2018-12-22T00:42:31.478Z,19.312128
2018-12-22T00:42:43.944Z,22.530816
2018-12-22T00:42:56.276Z,22.530816
2018-12-22T00:43:08.618Z,12.874752
2018-12-22T00:43:20.976Z,12.874752
2018-12-22T00:43:33.349Z,17.702784
2018-12-22T00:43:45.692Z,17.702784
2018-12-22T00:43:58.039Z,17.702784
2018-12-22T00:44:10.384Z,9.656064
2018-12-22T00:44:22.735Z,9.656064
2018-12-22T00:44:35.080Z,19.312128
2018-12-22T00:44:47.431Z,19.312128
2018-12-22T00:44:59.769Z,19.312128
2018-12-22T00:45:12.227Z,12.874752
2018-12-22T00:45:24.622Z,16.09344
2018-12-22T00:45:37.058Z,16.09344
2018-12-22T00:45:49.402Z,16.09344
2018-12-22T00:46:01.742Z,16.09344
2018-12-22T00:46:14.080Z,11.265408
2018-12-22T00:46:26.413Z,17.702784
2018-12-22T00:46:38.760Z,17.702784
2018-12-22T00:46:51.087Z,17.702784
2018-12-22T00:47:03.517Z,17.702784
2018-12-22T00:47:15.868Z,17.702784
2018-12-22T00:47:28.197Z,17.702784
2018-12-22T00:47:40.537Z,17.702784
2018-12-22T00:47:52.886Z,17.702784
2018-12-22T00:48:05.252Z,14.484096
2018-12-22T00:48:17.605Z,24.14016
2018-12-22T00:48:29.973Z,24.14016
2018-12-22T00:48:42.311Z,24.14016
2018-12-22T00:48:54.670Z,24.14016
2018-12-22T00:49:07.031Z,9.656064
2018-12-22T00:49:19.618Z,11.265408
2018-12-22T00:49:31.950Z,11.265408
2018-12-22T00:49:44.288Z,11.265408
2018-12-22T00:49:56.619Z,11.265408
2018-12-22T00:50:09.178Z,17.702784
2018-12-22T00:50:21.523Z,17.702784
2018-12-22T00:50:33.881Z,17.702784
2018-12-22T00:50:46.223Z,17.702784
2018-12-22T00:50:58.567Z,28.968192
2018-12-22T00:51:10.902Z,20.921472
2018-12-22T00:51:23.324Z,20.921472
2018-12-22T00:51:35.697Z,20.921472
2018-12-22T00:51:48.040Z,20.921472
2018-12-22T00:52:00.375Z,20.921472
2018-12-22T00:52:12.711Z,12.874752
2018-12-22T00:52:25.227Z,12.874752
2018-12-22T00:52:37.976Z,12.874752
2018-12-22T00:52:50.314Z,20.921472
2018-12-22T00:53:02.651Z,20.921472
2018-12-22T00:53:15.099Z,8.04672
2018-12-22T00:53:27.458Z,16.09344
2018-12-22T00:53:39.866Z,16.09344
2018-12-22T00:53:52.214Z,16.09344
2018-12-22T00:54:04.563Z,9.656064
2018-12-22T00:54:19.201Z,17.702784
2018-12-22T00:54:31.558Z,17.702784
2018-12-22T00:54:43.906Z,17.702784
2018-12-22T00:54:56.341Z,17.702784
2018-12-22T00:55:08.853Z,11.265408
2018-12-22T00:55:21.191Z,14.484096
2018-12-22T00:55:33.525Z,16.09344
2018-12-22T00:55:45.856Z,16.09344
2018-12-22T00:55:58.200Z,16.09344
2018-12-22T00:56:10.537Z,17.702784
2018-12-22T00:56:22.888Z,17.702784
2018-12-22T00:56:35.308Z,17.702784
2018-12-22T00:56:47.763Z,17.702784
2018-12-22T00:57:00.215Z,17.702784
2018-12-22T00:57:12.625Z,16.09344
2018-12-22T00:57:24.959Z,22.530816
2018-12-22T00:57:37.300Z,22.530816
2018-12-22T00:57:49.630Z,22.530816
2018-12-22T00:58:02.033Z,22.530816
2018-12-22T00:58:14.376Z,16.09344
2018-12-22T00:58:35.122Z,17.702784
2018-12-22T00:58:47.491Z,17.702784
2018-12-22T00:58:59.849Z,17.702784
2018-12-22T00:59:12.184Z,16.09344
2018-12-22T00:59:24.515Z,16.09344
2018-12-22T00:59:36.852Z,16.09344
2018-12-22T00:59:49.199Z,16.09344
2018-12-22T01:00:01.547Z,16.09344
2018-12-22T01:00:16.085Z,12.874752
2018-12-22T01:00:28.588Z,12.874752
2018-12-22T01:00:41.073Z,12.874752
2018-12-22T01:00:53.438Z,14.484096
2018-12-22T01:01:05.796Z,9.656064
2018-12-22T01:01:18.191Z,12.874752
2018-12-22T01:01:30.529Z,20.921472
2018-12-22T01:01:42.873Z,20.921472
2018-12-22T01:01:55.244Z,20.921472
2018-12-22T01:02:07.619Z,6.437376
2018-12-22T01:02:20.009Z,6.437376
2018-12-22T01:02:32.354Z,12.874752
2018-12-22T01:02:44.715Z,16.09344
2018-12-22T01:02:57.101Z,20.921472
2018-12-22T01:03:09.450Z,11.265408
2018-12-22T01:03:21.797Z,11.265408
2018-12-22T01:03:34.167Z,11.265408
2018-12-22T01:03:46.531Z,11.265408
2018-12-22T01:03:58.878Z,11.265408
2018-12-22T01:04:11.256Z,14.484096
2018-12-22T01:04:23.605Z,14.484096
2018-12-22T01:04:36.047Z,14.484096
2018-12-22T01:04:48.374Z,14.484096
2018-12-22T01:05:00.738Z,14.484096
2018-12-22T01:05:13.081Z,16.09344
2018-12-22T01:05:25.430Z,16.09344
2018-12-22T01:05:37.775Z,16.09344
2018-12-22T01:05:50.125Z,16.09344
2018-12-22T01:06:02.469Z,16.09344
2018-12-22T01:06:14.822Z,8.04672
2018-12-22T01:06:27.163Z,8.04672
2018-12-22T01:06:39.615Z,11.265408
2018-12-22T01:06:53.910Z,12.874752
2018-12-22T01:07:06.263Z,6.437376
2018-12-22T01:07:18.652Z,12.874752
2018-12-22T01:07:30.990Z,12.874752
2018-12-22T01:07:43.339Z,12.874752
2018-12-22T01:07:55.700Z,12.874752
2018-12-22T01:08:08.066Z,25.749504
2018-12-22T01:08:20.530Z,32.18688
2018-12-22T01:08:33.003Z,32.18688
2018-12-22T01:08:45.361Z,32.18688
2018-12-22T01:08:57.706Z,32.18688
2018-12-22T01:09:10.064Z,11.265408
2018-12-22T01:09:22.401Z,14.484096
2018-12-22T01:09:34.769Z,14.484096
2018-12-22T01:09:47.215Z,14.484096
2018-12-22T01:09:59.569Z,14.484096
2018-12-22T01:10:11.937Z,6.437376
2018-12-22T01:10:24.287Z,6.437376
2018-12-22T01:10:36.620Z,12.874752
2018-12-22T01:10:48.967Z,12.874752
2018-12-22T01:11:01.313Z,12.874752
2018-12-22T01:11:13.646Z,8.04672
2018-12-22T01:11:25.991Z,11.265408
2018-12-22T01:11:38.331Z,12.874752
2018-12-22T01:11:50.886Z,12.874752
2018-12-22T01:12:03.332Z,9.656064
2018-12-22T01:12:15.678Z,11.265408
2018-12-22T01:12:28.085Z,11.265408
2018-12-22T01:12:40.465Z,24.14016
2018-12-22T01:12:52.813Z,24.14016
2018-12-22T01:13:05.164Z,11.265408
2018-12-22T01:13:17.570Z,12.874752
2018-12-22T01:13:29.928Z,12.874752
2018-12-22T01:13:42.567Z,12.874752
2018-12-22T01:13:54.957Z,12.874752
2018-12-22T01:14:07.405Z,8.04672
2018-12-22T01:14:19.747Z,8.04672
2018-12-22T01:14:32.091Z,8.04672
2018-12-22T01:14:44.436Z,14.484096
2018-12-22T01:14:57.072Z,14.484096
2018-12-22T01:15:09.491Z,11.265408
2018-12-22T01:15:21.828Z,11.265408
2018-12-22T01:15:34.182Z,11.265408
2018-12-22T01:15:46.640Z,11.265408
2018-12-22T01:15:59.110Z,17.702784
2018-12-22T01:16:11.457Z,9.656064
2018-12-22T01:16:23.799Z,9.656064
2018-12-22T01:16:36.161Z,17.702784
2018-12-22T01:16:50.431Z,19.312128
2018-12-22T01:17:03.077Z,11.265408
2018-12-22T01:17:15.440Z,20.921472
2018-12-22T01:17:28.012Z,20.921472
2018-12-22T01:17:40.357Z,20.921472
2018-12-22T01:17:52.703Z,20.921472
2018-12-22T01:18:05.074Z,17.702784
2018-12-22T01:18:17.548Z,17.702784
2018-12-22T01:18:29.991Z,17.702784
2018-12-22T01:18:42.334Z,17.702784
2018-12-22T01:18:54.674Z,17.702784
2018-12-22T01:19:07.033Z,17.702784
2018-12-22T01:19:19.383Z,17.702784
2018-12-22T01:19:31.846Z,17.702784
2018-12-22T01:19:44.218Z,17.702784
2018-12-22T01:19:56.600Z,17.702784
2018-12-22T01:20:08.964Z,6.437376
2018-12-22T01:20:21.407Z,6.437376
2018-12-22T01:20:33.787Z,6.437376
2018-12-22T01:20:46.132Z,14.484096
2018-12-22T01:20:58.480Z,16.09344
2018-12-22T01:21:10.840Z,12.874752
2018-12-22T01:21:23.173Z,14.484096
2018-12-22T01:21:35.513Z,30.577536
2018-12-22T01:21:47.840Z,33.796224
2018-12-22T01:22:00.270Z,33.796224
2018-12-22T01:22:12.600Z,14.484096
2018-12-22T01:22:24.933Z,14.484096
2018-12-22T01:22:37.370Z,16.09344
2018-12-22T01:22:49.714Z,19.312128
2018-12-22T01:23:02.065Z,19.312128
2018-12-22T01:23:14.403Z,12.874752
2018-12-22T01:23:26.743Z,14.484096
2018-12-22T01:23:39.090Z,14.484096
2018-12-22T01:23:51.452Z,14.484096
2018-12-22T01:24:03.792Z,12.874752
2018-12-22T01:24:16.128Z,12.874752
2018-12-22T01:24:28.652Z,20.921472
2018-12-22T01:24:40.992Z,25.749504
2018-12-22T01:24:53.333Z,25.749504
2018-12-22T01:25:05.743Z,17.702784
2018-12-22T01:25:18.095Z,25.749504
2018-12-22T01:25:30.469Z,25.749504
2018-12-22T01:25:42.810Z,25.749504
2018-12-22T01:25:55.387Z,25.749504
2018-12-22T01:26:07.750Z,28.968192
2018-12-22T01:26:20.101Z,28.968192
2018-12-22T01:26:32.473Z,28.968192
2018-12-22T01:26:44.991Z,30.577536
2018-12-22T01:26:57.502Z,30.577536
2018-12-22T01:27:09.970Z,20.921472
2018-12-22T01:27:22.310Z,30.577536
2018-12-22T01:27:34.644Z,30.577536
2018-12-22T01:27:47.015Z,30.577536
2018-12-22T01:27:59.356Z,30.577536
2018-12-22T01:28:11.825Z,11.265408
2018-12-22T01:28:24.168Z,16.09344
2018-12-22T01:28:44.989Z,16.09344
2018-12-22T01:28:57.322Z,16.09344
2018-12-22T01:29:09.666Z,24.14016
2018-12-22T01:29:22.035Z,33.796224
2018-12-22T01:29:34.407Z,33.796224
2018-12-22T01:29:46.753Z,33.796224
2018-12-22T01:29:59.085Z,33.796224
2018-12-22T01:30:11.444Z,16.09344
2018-12-22T01:30:24.027Z,35.405568
2018-12-22T01:30:36.377Z,41.842944
2018-12-22T01:30:48.732Z,41.842944
2018-12-22T01:31:01.074Z,41.842944
2018-12-22T01:31:13.429Z,16.09344
2018-12-22T01:31:25.760Z,16.09344
2018-12-22T01:31:38.118Z,16.09344
2018-12-22T01:31:50.557Z,16.09344
2018-12-22T01:32:02.901Z,11.265408
2018-12-22T01:32:15.348Z,14.484096
2018-12-22T01:32:27.710Z,24.14016
2018-12-22T01:32:40.079Z,24.14016
2018-12-22T01:32:52.409Z,24.14016
2018-12-22T01:33:04.768Z,17.702784
2018-12-22T01:33:17.127Z,17.702784
2018-12-22T01:33:29.459Z,17.702784
2018-12-22T01:33:41.817Z,19.312128
2018-12-22T01:33:54.167Z,19.312128
2018-12-22T01:34:06.545Z,12.874752
2018-12-22T01:34:18.889Z,12.874752
2018-12-22T01:34:31.223Z,12.874752
2018-12-22T01:34:43.826Z,25.749504
2018-12-22T01:34:56.166Z,25.749504
2018-12-22T01:35:08.695Z,20.921472
2018-12-22T01:35:21.050Z,20.921472
2018-12-22T01:35:33.385Z,20.921472
2018-12-22T01:35:45.723Z,22.530816
2018-12-22T01:35:58.169Z,22.530816
2018-12-22T01:36:10.511Z,22.530816
2018-12-22T01:36:22.853Z,22.530816
2018-12-22T01:36:35.356Z,22.530816
2018-12-22T01:36:47.781Z,22.530816
2018-12-22T01:37:00.107Z,22.530816
2018-12-22T01:37:12.442Z,6.437376
2018-12-22T01:37:24.771Z,11.265408
2018-12-22T01:37:37.116Z,12.874752
2018-12-22T01:37:49.460Z,12.874752
2018-12-22T01:38:01.792Z,12.874752
2018-12-22T01:38:14.119Z,6.437376
2018-12-22T01:38:26.462Z,12.874752
2018-12-22T01:38:38.792Z,22.530816
2018-12-22T01:38:51.131Z,22.530816
2018-12-22T01:39:03.472Z,8.04672
2018-12-22T01:39:15.974Z,12.874752
2018-12-22T01:39:28.412Z,14.484096
2018-12-22T01:39:40.754Z,17.702784
2018-12-22T01:39:53.098Z,17.702784
2018-12-22T01:40:05.655Z,20.921472
2018-12-22T01:40:17.985Z,20.921472
2018-12-22T01:40:30.347Z,20.921472
2018-12-22T01:40:42.680Z,20.921472
2018-12-22T01:40:55.003Z,24.14016
2018-12-22T01:41:07.595Z,19.312128
2018-12-22T01:41:19.932Z,19.312128
2018-12-22T01:41:32.317Z,24.14016
2018-12-22T01:41:44.655Z,24.14016
2018-12-22T01:41:56.998Z,24.14016
2018-12-22T01:42:09.344Z,9.656064
2018-12-22T01:42:21.695Z,28.968192
2018-12-22T01:42:34.050Z,28.968192
2018-12-22T01:42:46.403Z,28.968192
2018-12-22T01:42:58.740Z,28.968192
2018-12-22T01:43:11.080Z,30.577536
2018-12-22T01:43:23.466Z,30.577536
2018-12-22T01:43:35.798Z,30.577536
2018-12-22T01:43:48.131Z,30.577536
2018-12-22T01:44:00.490Z,30.577536
2018-12-22T01:44:12.839Z,8.04672
2018-12-22T01:44:25.166Z,16.09344
2018-12-22T01:44:37.584Z,22.530816
2018-12-22T01:44:49.948Z,22.530816
2018-12-22T01:45:02.299Z,22.530816
2018-12-22T01:45:14.635Z,14.484096
2018-12-22T01:45:26.988Z,14.484096
2018-12-22T01:45:39.479Z,14.484096
2018-12-22T01:45:51.924Z,16.09344
2018-12-22T01:46:04.384Z,11.265408
2018-12-22T01:46:16.729Z,17.702784
2018-12-22T01:46:29.061Z,17.702784
2018-12-22T01:46:41.399Z,17.702784
2018-12-22T01:46:53.751Z,17.702784
2018-12-22T01:47:06.088Z,14.484096
2018-12-22T01:47:18.438Z,17.702784
2018-12-22T01:47:30.782Z,17.702784
2018-12-22T01:47:43.140Z,19.312128
2018-12-22T01:47:55.513Z,19.312128
2018-12-22T01:48:07.863Z,25.749504
2018-12-22T01:48:20.194Z,25.749504
2018-12-22T01:48:32.548Z,25.749504
2018-12-22T01:48:44.889Z,25.749504
2018-12-22T01:48:57.220Z,25.749504
2018-12-22T01:49:09.587Z,8.04672
2018-12-22T01:49:22.223Z,11.265408
2018-12-22T01:49:36.718Z,19.312128
2018-12-22T01:49:49.127Z,19.312128
2018-12-22T01:50:01.472Z,19.312128
2018-12-22T01:50:13.978Z,12.874752
2018-12-22T01:50:26.333Z,14.484096
2018-12-22T01:50:38.679Z,17.702784
2018-12-22T01:50:51.037Z,17.702784
2018-12-22T01:51:03.384Z,14.484096
2018-12-22T01:51:15.849Z,19.312128
2018-12-22T01:51:28.211Z,19.312128
2018-12-22T01:51:40.561Z,19.312128
2018-12-22T01:51:52.898Z,24.14016
2018-12-22T01:52:05.383Z,14.484096
2018-12-22T01:52:17.732Z,14.484096
2018-12-22T01:52:30.247Z,22.530816
2018-12-22T01:52:42.584Z,22.530816
2018-12-22T01:52:54.938Z,22.530816
2018-12-22T01:53:07.271Z,16.09344
2018-12-22T01:53:19.607Z,16.09344
2018-12-22T01:53:31.942Z,20.921472
2018-12-22T01:53:44.298Z,20.921472
2018-12-22T01:53:56.648Z,20.921472
2018-12-22T01:54:09.059Z,11.265408
2018-12-22T01:54:21.503Z,11.265408
2018-12-22T01:54:33.843Z,20.921472
2018-12-22T01:54:46.189Z,20.921472
2018-12-22T01:54:58.547Z,24.14016
2018-12-22T01:55:11.112Z,12.874752
2018-12-22T01:55:23.572Z,24.14016
2018-12-22T01:55:35.914Z,24.14016
2018-12-22T01:55:48.244Z,24.14016
2018-12-22T01:56:00.581Z,24.14016
2018-12-22T01:56:12.911Z,25.749504
2018-12-22T01:56:25.377Z,25.749504
2018-12-22T01:56:37.705Z,25.749504
2018-12-22T01:56:50.340Z,33.796224
2018-12-22T01:57:02.694Z,33.796224
2018-12-22T01:57:15.034Z,20.921472
2018-12-22T01:57:27.382Z,24.14016
2018-12-22T01:57:39.714Z,32.18688
2018-12-22T01:57:52.046Z,33.796224
2018-12-22T01:58:04.398Z,19.312128
2018-12-22T01:58:16.726Z,28.968192
2018-12-22T01:58:29.076Z,28.968192
2018-12-22T01:58:50.073Z,28.968192
2018-12-22T01:59:02.436Z,28.968192
2018-12-22T01:59:14.784Z,8.04672
2018-12-22T01:59:27.140Z,19.312128
2018-12-22T01:59:39.510Z,25.749504
2018-12-22T01:59:51.855Z,25.749504
2018-12-22T02:00:04.209Z,9.656064
2018-12-22T02:00:16.573Z,11.265408
2018-12-22T02:00:28.926Z,11.265408
2018-12-22T02:00:41.309Z,12.874752
2018-12-22T02:00:53.659Z,12.874752
2018-12-22T02:01:06.007Z,8.04672
2018-12-22T02:01:18.364Z,16.09344
2018-12-22T02:01:30.722Z,16.09344
2018-12-22T02:01:43.059Z,16.09344
2018-12-22T02:01:55.436Z,16.09344
2018-12-22T02:02:07.799Z,8.04672
2018-12-22T02:02:20.161Z,24.14016
2018-12-22T02:02:32.499Z,24.14016
2018-12-22T02:02:44.838Z,24.14016
2018-12-22T02:02:57.197Z,25.749504
2018-12-22T02:03:09.574Z,12.874752
2018-12-22T02:03:21.926Z,12.874752
2018-12-22T02:03:34.279Z,24.14016
2018-12-22T02:03:46.610Z,24.14016
2018-12-22T02:03:59.105Z,24.14016
2018-12-22T02:04:11.460Z,19.312128
2018-12-22T02:04:23.801Z,35.405568
2018-12-22T02:04:36.148Z,35.405568
2018-12-22T02:04:48.633Z,35.405568
2018-12-22T02:05:00.975Z,35.405568
2018-12-22T02:05:13.317Z,12.874752
2018-12-22T02:05:25.668Z,12.874752
2018-12-22T02:05:38.083Z,12.874752
2018-12-22T02:05:50.434Z,14.484096
2018-12-22T02:06:02.790Z,17.702784
2018-12-22T02:06:15.149Z,17.702784
2018-12-22T02:06:27.643Z,37.014912
2018-12-22T02:06:39.980Z,37.014912
2018-12-22T02:06:52.322Z,37.014912
2018-12-22T02:07:04.769Z,9.656064
2018-12-22T02:07:17.124Z,30.577536
2018-12-22T02:07:29.470Z,30.577536
2018-12-22T02:07:41.813Z,32.18688
2018-12-22T02:07:54.158Z,32.18688
2018-12-22T02:08:06.509Z,16.09344
2018-12-22T02:08:19.000Z,17.702784
2018-12-22T02:08:31.340Z,17.702784
2018-12-22T02:08:43.672Z,17.702784
2018-12-22T02:08:56.014Z,17.702784
2018-12-22T02:09:08.381Z,16.09344
2018-12-22T02:09:20.749Z,16.09344
2018-12-22T02:09:33.100Z,16.09344
2018-12-22T02:09:45.455Z,19.312128
2018-12-22T02:09:57.891Z,19.312128
2018-12-22T02:10:10.271Z,14.484096
2018-12-22T02:10:22.610Z,14.484096
2018-12-22T02:10:34.947Z,24.14016
2018-12-22T02:10:47.289Z,24.14016
2018-12-22T02:10:59.637Z,28.968192
2018-12-22T02:11:11.981Z,24.14016
2018-12-22T02:11:24.309Z,24.14016
2018-12-22T02:11:36.659Z,32.18688
2018-12-22T02:11:48.995Z,32.18688
2018-12-22T02:12:01.348Z,32.18688
2018-12-22T02:12:13.687Z,12.874752
2018-12-22T02:12:26.030Z,12.874752
2018-12-22T02:12:38.371Z,12.874752
2018-12-22T02:12:50.718Z,12.874752
2018-12-22T02:13:03.068Z,17.702784
2018-12-22T02:13:15.480Z,20.921472
2018-12-22T02:13:27.868Z,25.749504
2018-12-22T02:13:40.357Z,25.749504
2018-12-22T02:13:52.768Z,25.749504
2018-12-22T02:14:05.096Z,16.09344
2018-12-22T02:14:17.433Z,17.702784
2018-12-22T02:14:29.773Z,17.702784
2018-12-22T02:14:42.100Z,17.702784
2018-12-22T02:14:54.702Z,17.702784
2018-12-22T02:15:07.283Z,16.09344
2018-12-22T02:15:19.629Z,24.14016
2018-12-22T02:15:32.077Z,24.14016
2018-12-22T02:15:44.413Z,24.14016
2018-12-22T02:15:56.755Z,24.14016
2018-12-22T02:16:09.213Z,11.265408
2018-12-22T02:16:21.570Z,12.874752
2018-12-22T02:16:33.925Z,20.921472
2018-12-22T02:16:46.285Z,25.749504
2018-12-22T02:16:58.744Z,25.749504
2018-12-22T02:17:11.097Z,9.656064
2018-12-22T02:17:23.457Z,22.530816
2018-12-22T02:17:35.791Z,22.530816
2018-12-22T02:17:48.141Z,22.530816
2018-12-22T02:18:00.479Z,22.530816
2018-12-22T02:18:12.992Z,11.265408
2018-12-22T02:18:25.332Z,11.265408
2018-12-22T02:18:37.692Z,11.265408
2018-12-22T02:18:50.051Z,16.09344
2018-12-22T02:19:02.379Z,24.14016
2018-12-22T02:19:14.726Z,22.530816
2018-12-22T02:19:27.089Z,22.530816
2018-12-22T02:19:39.535Z,22.530816
2018-12-22T02:19:51.875Z,22.530816
2018-12-22T02:20:04.217Z,8.04672
2018-12-22T02:20:16.564Z,17.702784
2018-12-22T02:20:28.903Z,17.702784
2018-12-22T02:20:41.234Z,17.702784
2018-12-22T02:20:53.583Z,28.968192
2018-12-22T02:21:05.926Z,20.921472
2018-12-22T02:21:18.259Z,22.530816
2018-12-22T02:21:30.602Z,22.530816
2018-12-22T02:21:42.938Z,22.530816
2018-12-22T02:21:55.308Z,22.530816
2018-12-22T02:22:07.771Z,32.18688
2018-12-22T02:22:20.091Z,35.405568
2018-12-22T02:22:32.425Z,35.405568
2018-12-22T02:22:44.764Z,35.405568
2018-12-22T02:22:57.122Z,35.405568
2018-12-22T02:23:09.651Z,16.09344